You are not logged in, Click here to log in
隆納·雷根華盛頓國家機場 DCA / KDCA 美國 首都華盛頓市
ICAO: KDCA Country: 美國 首都華盛頓市
Latitude: 38.8521 Longitude: -77.0377
Total Arrivals: 4 Total Departures: 3
Latest Arrival: CI1256 (KORD-KDCA)ALAN. LIU Latest Departure: JX1260 (KDCA-KRSW)ALAN. LIU
Scenery:
METAR : KDCA 190252Z 29008KT 10SM SCT050 OVC110 13/08 A3006 RMK AO2 SLP180 60000 T01330083 53017

隆納·雷根華盛頓國家機場 DCA

You are accessing this site from IP address 35.175.113.29. Virtual Airline. CMS by phpVMS.Website designed by Zumeweb and edited by Theo Bearman.
There is 0 User(s) Online: | and 12 Guest(s) Online.
All information on this site is for fight simulation purposes only. This site is for flight logging for pilots of Virtual Airline&模擬飛行論壇 FlySim only.